Time;durP1;ratioP1;P1;durP2;ratioP2;P2;SDS_P1;SDS_P2;PMS_P1;PMS_P2;Temp;Humidity;BMP_temperature;BMP_pressure;BME280_temperature;BME280_humidity;BME280_pressure;Samples;Min_cycle;Max_cycle;Signal;HPM_P1;HPM_P2
2022/09/25 00:00:54;;;;;;;15.93;9.57;;;15.90;99.90;;;;;;6179612;28;20417;-80
2022/09/25 00:03:56;;;;;;;14.75;9.60;;;15.80;99.90;;;;;;6179991;28;20050;-80
2022/09/25 00:06:59;;;;;;;17.63;10.25;;;15.80;99.90;;;;;;6179110;28;20050;-80
2022/09/25 00:10:01;;;;;;;18.45;9.32;;;15.80;99.90;;;;;;6177445;28;20054;-80
2022/09/25 00:13:02;;;;;;;14.32;8.48;;;15.80;99.90;;;;;;6180026;28;20062;-80
2022/09/25 00:16:05;;;;;;;21.67;10.18;;;15.80;99.90;;;;;;6179200;28;20058;-80
2022/09/25 00:22:29;;;;;;;17.45;9.77;;;15.90;99.90;;;;;;6180083;28;20444;-80
2022/09/25 00:25:30;;;;;;;18.13;10.00;;;15.90;99.90;;;;;;6180792;28;20046;-80
2022/09/25 00:28:32;;;;;;;17.17;9.63;;;15.80;99.90;;;;;;6180674;28;20047;-80
2022/09/25 00:31:34;;;;;;;12.05;7.78;;;15.80;99.90;;;;;;6181734;28;20042;-80
2022/09/25 00:34:37;;;;;;;17.08;8.90;;;15.80;99.90;;;;;;6191982;28;20313;-80
2022/09/25 00:37:39;;;;;;;19.08;7.93;;;15.80;99.90;;;;;;6182029;28;20050;-80
2022/09/25 00:40:41;;;;;;;14.25;8.38;;;15.80;99.90;;;;;;6180920;28;20050;-81
2022/09/25 00:43:45;;;;;;;13.50;8.38;;;15.80;99.90;;;;;;6179359;28;20047;-80
2022/09/25 00:46:47;;;;;;;12.30;7.45;;;15.80;99.90;;;;;;6180133;28;20728;-80
2022/09/25 00:49:49;;;;;;;11.95;7.45;;;15.80;99.90;;;;;;6179317;28;20043;-80
2022/09/25 00:52:55;;;;;;;12.50;8.05;;;15.80;99.90;;;;;;6180312;28;20501;-80
2022/09/25 00:55:59;;;;;;;15.85;8.10;;;15.80;99.90;;;;;;6179518;28;20062;-80
2022/09/25 00:59:01;;;;;;;12.30;8.18;;;15.80;99.90;;;;;;6179270;28;20058;-81
2022/09/25 01:02:02;;;;;;;14.07;7.78;;;15.70;99.90;;;;;;6179518;28;20043;-80
2022/09/25 01:05:06;;;;;;;13.27;7.93;;;15.70;99.90;;;;;;6179484;28;20429;-80
2022/09/25 01:08:13;;;;;;;14.85;8.45;;;15.60;99.90;;;;;;6179008;28;20050;-80
2022/09/25 01:11:16;;;;;;;14.02;7.90;;;15.60;99.90;;;;;;6179290;28;20042;-80
2022/09/25 01:14:18;;;;;;;14.63;9.02;;;15.50;99.90;;;;;;6178808;28;20420;-80
2022/09/25 01:17:27;;;;;;;13.38;7.63;;;15.50;99.90;;;;;;6179430;28;20433;-80
2022/09/25 01:20:48;;;;;;;17.10;8.77;;;15.50;99.90;;;;;;6180431;28;20454;-80
2022/09/25 01:24:03;;;;;;;12.80;7.80;;;15.50;99.90;;;;;;6183231;28;20054;-81
2022/09/25 01:27:24;;;;;;;15.30;8.40;;;15.50;99.90;;;;;;6182950;28;20073;-80
2022/09/25 01:30:31;;;;;;;16.30;9.30;;;15.50;99.90;;;;;;6182844;28;20043;-80
2022/09/25 01:33:37;;;;;;;18.55;9.38;;;15.50;99.90;;;;;;6183291;28;20057;-80
2022/09/25 01:36:44;;;;;;;17.05;10.60;;;15.50;99.90;;;;;;6182629;28;20051;-80
2022/09/25 01:39:49;;;;;;;16.33;9.63;;;15.50;99.90;;;;;;6181431;28;20057;-80
2022/09/25 01:42:55;;;;;;;20.35;10.15;;;15.50;99.90;;;;;;6182129;28;20070;-80
2022/09/25 01:46:04;;;;;;;17.42;9.32;;;15.50;99.90;;;;;;6180821;28;20062;-80
2022/09/25 01:49:09;;;;;;;16.73;8.93;;;15.50;99.90;;;;;;6180023;28;20387;-80
2022/09/25 01:52:17;;;;;;;23.13;11.15;;;15.60;99.90;;;;;;6180939;28;20421;-80
2022/09/25 01:55:23;;;;;;;17.58;9.02;;;15.60;99.90;;;;;;6180843;28;20051;-80
2022/09/25 01:58:29;;;;;;;16.10;10.30;;;15.70;99.90;;;;;;6180077;28;20406;-81
2022/09/25 02:01:37;;;;;;;19.65;10.15;;;15.60;99.90;;;;;;6180155;28;20440;-80
2022/09/25 02:04:44;;;;;;;16.40;9.00;;;15.60;99.90;;;;;;6181576;28;20050;-80
2022/09/25 02:07:52;;;;;;;16.50;9.67;;;15.60;99.90;;;;;;6180900;28;20055;-80
2022/09/25 02:10:56;;;;;;;21.15;9.73;;;15.70;99.90;;;;;;6180744;28;20069;-80
2022/09/25 02:14:02;;;;;;;20.23;9.55;;;15.70;99.90;;;;;;6180992;28;20046;-80
2022/09/25 02:17:09;;;;;;;19.63;9.75;;;15.70;99.90;;;;;;6182020;28;20064;-81
2022/09/25 02:23:41;;;;;;;17.38;9.55;;;15.70;99.90;;;;;;6180980;28;20043;-80
2022/09/25 02:26:43;;;;;;;15.93;9.40;;;15.70;99.90;;;;;;6180319;28;20047;-80
2022/09/25 02:29:44;;;;;;;14.75;9.90;;;15.70;99.90;;;;;;6179774;28;20417;-80
2022/09/25 02:32:47;;;;;;;18.75;9.20;;;15.70;99.90;;;;;;6179671;28;20059;-81
2022/09/25 02:35:49;;;;;;;22.25;10.93;;;15.70;99.90;;;;;;6180128;28;20416;-80
2022/09/25 02:38:53;;;;;;;21.92;12.60;;;15.70;99.90;;;;;;6180076;28;20062;-80
2022/09/25 02:42:13;;;;;;;15.60;8.63;;;15.70;99.90;;;;;;6180039;28;20058;-80
2022/09/25 02:45:23;;;;;;;16.67;8.73;;;15.60;99.90;;;;;;6180579;28;20061;-80
2022/09/25 02:48:36;;;;;;;17.25;9.48;;;15.50;99.90;;;;;;6180215;28;20061;-80
2022/09/25 02:51:49;;;;;;;21.58;11.18;;;15.60;99.90;;;;;;6179789;28;20050;-80
2022/09/25 02:54:56;;;;;;;18.52;9.80;;;15.50;99.90;;;;;;6181697;28;20058;-81
2022/09/25 02:58:03;;;;;;;21.15;10.48;;;15.60;99.90;;;;;;6180732;28;20042;-81
2022/09/25 03:01:08;;;;;;;24.80;11.60;;;15.60;99.90;;;;;;6181049;28;20054;-80
2022/09/25 03:04:11;;;;;;;26.08;13.02;;;15.60;99.90;;;;;;6179700;28;20050;-80
2022/09/25 03:07:13;;;;;;;23.60;12.20;;;15.60;99.90;;;;;;6179665;28;20055;-80
2022/09/25 03:10:16;;;;;;;21.73;12.07;;;15.50;99.90;;;;;;6181326;28;20077;-80
2022/09/25 03:13:21;;;;;;;23.52;12.32;;;15.50;99.90;;;;;;6180089;28;20054;-80
2022/09/25 03:16:32;;;;;;;26.58;13.05;;;15.60;99.90;;;;;;6180265;28;20051;-80
2022/09/25 03:19:35;;;;;;;27.25;14.63;;;15.50;99.90;;;;;;6179110;28;20038;-81
2022/09/25 03:22:37;;;;;;;27.58;13.63;;;15.60;99.90;;;;;;6179795;28;20053;-80
2022/09/25 03:25:39;;;;;;;22.52;12.45;;;15.50;99.90;;;;;;6179567;28;20043;-81
2022/09/25 03:28:40;;;;;;;24.45;13.55;;;15.50;99.90;;;;;;6179941;28;20051;-81
2022/09/25 03:31:44;;;;;;;25.80;13.52;;;15.50;99.90;;;;;;6179581;28;20046;-81
2022/09/25 03:34:47;;;;;;;22.85;13.88;;;15.50;99.90;;;;;;6180466;28;20575;-80
2022/09/25 03:37:48;;;;;;;26.33;13.38;;;15.50;99.90;;;;;;6179578;28;20405;-81
2022/09/25 03:40:50;;;;;;;26.42;13.20;;;15.50;99.90;;;;;;6180881;28;20054;-80
2022/09/25 03:43:52;;;;;;;24.50;12.52;;;15.50;99.90;;;;;;6182548;28;20066;-81
2022/09/25 03:46:54;;;;;;;27.52;13.70;;;15.50;99.90;;;;;;6180407;28;20105;-81
2022/09/25 03:49:57;;;;;;;30.25;15.52;;;15.60;99.90;;;;;;6178862;28;20501;-81
2022/09/25 03:52:59;;;;;;;24.63;13.10;;;15.60;99.90;;;;;;6178827;28;20078;-81
2022/09/25 03:56:01;;;;;;;29.10;14.05;;;15.60;99.90;;;;;;6179210;28;20054;-81
2022/09/25 03:59:02;;;;;;;26.30;13.98;;;15.60;99.90;;;;;;6190383;28;20050;-81
2022/09/25 04:02:04;;;;;;;31.30;14.02;;;15.70;99.90;;;;;;6182139;28;20443;-81
2022/09/25 04:05:09;;;;;;;27.23;14.20;;;15.70;99.90;;;;;;6180832;28;20050;-81
2022/09/25 04:08:10;;;;;;;29.20;14.75;;;15.70;99.90;;;;;;6179528;28;20043;-80
2022/09/25 04:11:12;;;;;;;36.05;15.77;;;15.80;99.90;;;;;;6179601;28;20062;-81
2022/09/25 04:14:14;;;;;;;30.05;14.93;;;15.80;99.90;;;;;;6179714;28;20047;-81
2022/09/25 04:17:16;;;;;;;30.40;14.35;;;15.80;99.90;;;;;;6179437;28;20055;-81
2022/09/25 04:20:19;;;;;;;31.20;14.10;;;15.80;99.90;;;;;;6179700;28;20046;-80
2022/09/25 04:23:21;;;;;;;27.05;13.48;;;15.80;99.90;;;;;;6179424;28;20067;-80
2022/09/25 04:26:23;;;;;;;27.13;14.60;;;15.70;99.90;;;;;;6178917;28;20057;-81
2022/09/25 04:29:24;;;;;;;28.42;13.68;;;15.70;99.90;;;;;;6178896;28;20047;-81
2022/09/25 04:35:47;;;;;;;25.45;13.95;;;15.60;99.90;;;;;;6178983;28;20043;-80
2022/09/25 04:38:48;;;;;;;32.65;13.65;;;15.60;99.90;;;;;;6178258;28;20043;-80
2022/09/25 04:41:50;;;;;;;28.30;14.43;;;15.50;99.90;;;;;;6178657;28;20054;-80
2022/09/25 04:44:53;;;;;;;28.75;14.73;;;15.50;99.90;;;;;;6179029;28;20050;-80
2022/09/25 04:47:55;;;;;;;26.95;13.00;;;15.50;99.90;;;;;;6177445;28;20101;-80
2022/09/25 04:50:58;;;;;;;28.58;14.38;;;15.50;99.90;;;;;;6178306;28;20054;-80
2022/09/25 04:53:59;;;;;;;31.20;14.25;;;15.50;99.90;;;;;;6178603;28;20101;-80
2022/09/25 04:57:01;;;;;;;27.92;14.40;;;15.40;99.90;;;;;;6183169;28;20062;-80
2022/09/25 05:00:04;;;;;;;26.92;14.48;;;15.40;99.90;;;;;;6182625;28;20087;-80
2022/09/25 05:03:06;;;;;;;32.38;14.77;;;15.40;99.90;;;;;;6180201;28;20115;-80
2022/09/25 05:06:09;;;;;;;27.85;14.32;;;15.40;99.90;;;;;;6179075;28;20054;-80
2022/09/25 05:09:11;;;;;;;31.70;15.10;;;15.30;99.90;;;;;;6179214;28;20070;-80
2022/09/25 05:12:13;;;;;;;27.15;15.43;;;15.30;99.90;;;;;;6178991;28;20054;-80
2022/09/25 05:15:15;;;;;;;31.33;15.38;;;15.30;99.90;;;;;;6179634;28;20070;-80
2022/09/25 05:18:19;;;;;;;30.85;14.38;;;15.40;99.90;;;;;;6178830;28;20042;-80
2022/09/25 05:21:22;;;;;;;34.03;15.02;;;15.40;99.90;;;;;;6179765;28;20050;-80
2022/09/25 05:24:24;;;;;;;24.27;14.23;;;15.40;99.90;;;;;;6179418;28;20193;-80
2022/09/25 05:27:26;;;;;;;25.08;14.32;;;15.40;99.90;;;;;;6178766;28;20066;-80
2022/09/25 05:30:29;;;;;;;26.02;13.15;;;15.30;99.90;;;;;;6178879;28;20047;-80
2022/09/25 05:33:31;;;;;;;26.20;13.65;;;15.40;99.90;;;;;;6179631;28;20047;-80
2022/09/25 05:36:34;;;;;;;26.30;14.18;;;15.40;99.90;;;;;;6179047;28;20051;-80
2022/09/25 05:39:36;;;;;;;24.52;13.05;;;15.40;99.90;;;;;;6193972;23;20069;-83
2022/09/25 05:42:38;;;;;;;23.83;13.25;;;15.40;99.90;;;;;;6180468;28;20051;-83
2022/09/25 05:45:41;;;;;;;31.58;12.73;;;15.40;99.90;;;;;;6180325;28;20050;-82
2022/09/25 05:48:43;;;;;;;23.77;11.13;;;15.40;99.90;;;;;;6180333;28;20058;-81
2022/09/25 05:51:46;;;;;;;45.15;21.33;;;15.50;99.90;;;;;;6180345;28;20416;-82
2022/09/25 05:54:48;;;;;;;24.52;13.07;;;15.50;99.90;;;;;;6180273;28;20417;-84
2022/09/25 05:57:50;;;;;;;32.13;16.73;;;15.50;99.90;;;;;;6179482;28;20047;-81
2022/09/25 06:00:52;;;;;;;23.83;13.45;;;15.60;99.90;;;;;;6182199;28;20058;-82
2022/09/25 06:03:53;;;;;;;19.08;10.88;;;15.70;99.90;;;;;;6184073;28;20069;-82
2022/09/25 06:06:58;;;;;;;27.08;11.48;;;15.70;99.90;;;;;;6183232;28;20042;-83
2022/09/25 06:10:00;;;;;;;17.70;10.60;;;15.70;99.90;;;;;;6184025;28;20050;-83
2022/09/25 06:13:04;;;;;;;18.27;11.45;;;15.70;99.90;;;;;;6183483;28;20078;-82
2022/09/25 06:16:14;;;;;;;18.52;10.45;;;15.70;99.90;;;;;;6181633;28;20524;-81
2022/09/25 06:19:17;;;;;;;15.85;9.63;;;15.70;99.90;;;;;;6181546;28;20043;-81
2022/09/25 06:22:20;;;;;;;19.65;10.45;;;15.70;99.90;;;;;;6182248;28;20508;-81
2022/09/25 06:25:22;;;;;;;18.15;9.57;;;15.70;99.90;;;;;;6181559;28;20394;-83
2022/09/25 06:28:24;;;;;;;15.38;9.40;;;15.80;99.90;;;;;;6181973;28;20094;-84
2022/09/25 06:31:26;;;;;;;46.78;14.65;;;15.80;99.90;;;;;;6180950;28;20042;-83
2022/09/25 06:34:27;;;;;;;19.27;9.60;;;15.90;99.90;;;;;;6181431;28;20046;-83
2022/09/25 06:37:30;;;;;;;15.85;9.20;;;15.90;99.90;;;;;;6180920;28;20050;-81
2022/09/25 06:40:33;;;;;;;17.50;9.07;;;15.80;99.90;;;;;;6131005;28;20051;-83
2022/09/25 06:43:34;;;;;;;14.40;8.88;;;15.80;99.90;;;;;;6184637;28;20121;-82
2022/09/25 06:46:36;;;;;;;17.30;7.95;;;15.80;99.90;;;;;;6183661;28;20069;-82
2022/09/25 06:49:38;;;;;;;15.90;9.20;;;15.70;99.90;;;;;;6182478;28;20515;-81
2022/09/25 06:52:43;;;;;;;13.57;8.15;;;15.80;99.90;;;;;;6183567;28;20078;-83
2022/09/25 06:55:45;;;;;;;13.27;8.25;;;15.80;99.90;;;;;;6175113;28;20054;-83
2022/09/25 06:58:47;;;;;;;15.93;8.40;;;15.80;99.90;;;;;;6173211;28;20130;-82
2022/09/25 07:01:49;;;;;;;19.77;14.18;;;15.80;99.90;;;;;;6163504;28;20054;-82
2022/09/25 07:04:50;;;;;;;16.17;9.90;;;15.90;99.90;;;;;;6172139;28;20058;-81
2022/09/25 07:07:54;;;;;;;11.27;7.47;;;15.90;99.90;;;;;;6175334;28;20043;-78
2022/09/25 07:10:58;;;;;;;16.67;9.52;;;16.00;99.90;;;;;;6171554;28;20043;-82
2022/09/25 07:13:59;;;;;;;17.95;11.00;;;16.00;99.90;;;;;;6158646;28;20047;-82
2022/09/25 07:17:01;;;;;;;16.33;9.43;;;16.10;99.90;;;;;;6159410;28;20067;-82
2022/09/25 07:20:03;;;;;;;12.30;8.68;;;16.10;99.90;;;;;;6155597;28;20047;-81
2022/09/25 07:23:06;;;;;;;17.75;10.40;;;16.20;99.90;;;;;;6156057;28;20047;-82
2022/09/25 07:26:10;;;;;;;13.35;7.97;;;16.30;99.90;;;;;;6170608;28;20046;-82
2022/09/25 07:29:12;;;;;;;13.25;7.72;;;16.40;99.90;;;;;;6174356;28;20058;-82
2022/09/25 07:32:14;;;;;;;18.30;10.65;;;16.40;99.90;;;;;;6180576;28;20058;-82
2022/09/25 07:35:17;;;;;;;17.60;10.50;;;16.50;99.90;;;;;;6181847;28;20051;-81
2022/09/25 07:38:20;;;;;;;13.73;7.88;;;16.50;99.90;;;;;;6182352;28;20125;-83
2022/09/25 07:41:23;;;;;;;16.67;9.98;;;16.60;99.90;;;;;;6181634;28;20073;-83
2022/09/25 07:44:24;;;;;;;26.85;21.15;;;16.60;99.90;;;;;;6182465;28;20053;-82
2022/09/25 07:47:26;;;;;;;15.70;8.35;;;16.60;99.90;;;;;;6182286;28;20531;-81
2022/09/25 07:50:28;;;;;;;16.15;8.30;;;16.70;99.90;;;;;;6182801;28;20518;-81
2022/09/25 07:53:32;;;;;;;16.67;11.25;;;16.80;99.90;;;;;;6181223;28;20051;-83
2022/09/25 07:56:34;;;;;;;16.85;10.27;;;16.80;99.90;;;;;;6178782;28;20054;-81
2022/09/25 07:59:35;;;;;;;20.88;11.80;;;16.80;99.90;;;;;;6175716;28;20042;-83
2022/09/25 08:02:37;;;;;;;14.65;10.20;;;16.90;99.90;;;;;;6178626;28;20050;-82
2022/09/25 08:05:39;;;;;;;24.48;15.05;;;16.90;99.90;;;;;;6178510;28;20054;-82
2022/09/25 08:08:43;;;;;;;17.60;12.23;;;16.90;99.90;;;;;;6178539;28;20073;-82
2022/09/25 08:11:44;;;;;;;12.60;8.30;;;17.10;99.90;;;;;;6161147;28;20070;-83
2022/09/25 08:14:46;;;;;;;15.73;9.43;;;17.20;99.90;;;;;;6179341;28;20444;-81
2022/09/25 08:17:48;;;;;;;23.08;11.45;;;17.30;99.90;;;;;;6178964;28;20042;-84
2022/09/25 08:20:51;;;;;;;16.20;8.95;;;17.50;99.90;;;;;;6181835;28;20438;-83
2022/09/25 08:23:55;;;;;;;33.25;17.88;;;17.90;99.90;;;;;;6178964;28;20073;-82
2022/09/25 08:26:57;;;;;;;25.20;15.05;;;18.30;99.90;;;;;;6174198;28;20053;-81
2022/09/25 08:29:58;;;;;;;15.65;10.38;;;18.80;99.90;;;;;;6157656;28;20056;-83
2022/09/25 08:33:00;;;;;;;17.90;11.13;;;19.00;99.90;;;;;;6161770;28;20055;-83
2022/09/25 08:36:04;;;;;;;26.73;14.73;;;19.00;99.90;;;;;;6166434;28;20042;-80
2022/09/25 08:39:08;;;;;;;13.02;7.97;;;18.90;99.90;;;;;;6185329;28;20065;-79
2022/09/25 08:42:17;;;;;;;11.45;7.93;;;18.70;99.90;;;;;;6183787;28;20119;-83
2022/09/25 08:49:05;;;;;;;;;;;18.50;99.90;;;;;;6167884;29;20468;-82
2022/09/25 08:52:13;;;;;;;17.93;9.30;;;18.20;99.90;;;;;;6166170;28;19930;-83
2022/09/25 08:55:22;;;;;;;14.95;10.32;;;18.00;99.90;;;;;;6171064;28;20049;-83
2022/09/25 08:58:25;;;;;;;13.73;10.00;;;17.70;99.90;;;;;;6177060;28;20043;-83
2022/09/25 09:01:30;;;;;;;16.23;9.38;;;17.50;99.90;;;;;;6164924;28;20062;-83
2022/09/25 09:04:35;;;;;;;11.90;8.27;;;17.20;99.90;;;;;;6162532;28;20051;-83
2022/09/25 09:07:42;;;;;;;12.38;9.05;;;17.20;99.90;;;;;;6163468;28;20048;-82
2022/09/25 09:10:48;;;;;;;11.98;8.88;;;17.10;99.90;;;;;;6166314;28;20039;-82
2022/09/25 09:13:54;;;;;;;12.75;8.43;;;17.10;99.90;;;;;;6168042;28;20054;-83
2022/09/25 09:17:00;;;;;;;16.80;9.20;;;17.00;99.90;;;;;;6163075;28;20063;-82
2022/09/25 09:20:15;;;;;;;18.88;8.88;;;17.10;99.90;;;;;;6173774;28;20047;-83
2022/09/25 09:23:20;;;;;;;19.33;8.52;;;17.30;99.90;;;;;;6173177;28;20254;-82
2022/09/25 09:26:32;;;;;;;11.48;8.38;;;17.40;99.90;;;;;;6178019;28;20046;-81
2022/09/25 09:29:50;;;;;;;12.27;8.02;;;17.50;99.90;;;;;;6179670;28;20054;-81
2022/09/25 09:33:07;;;;;;;15.93;7.90;;;17.40;99.90;;;;;;6185834;28;20054;-81
2022/09/25 09:36:17;;;;;;;11.02;7.57;;;17.50;99.90;;;;;;6176974;28;20062;-81
2022/09/25 09:39:24;;;;;;;12.82;5.93;;;17.70;99.90;;;;;;6179311;28;20106;-83
2022/09/25 09:42:34;;;;;;;9.95;6.35;;;18.00;99.90;;;;;;6177594;28;20143;-83
2022/09/25 09:45:44;;;;;;;10.25;6.55;;;18.40;99.90;;;;;;6174740;28;20069;-81
2022/09/25 09:48:58;;;;;;;8.63;5.53;;;18.80;99.90;;;;;;6169607;28;20049;-83
2022/09/25 09:52:08;;;;;;;11.48;5.47;;;19.40;99.90;;;;;;6169498;28;20058;-82
2022/09/25 09:55:20;;;;;;;9.10;5.18;;;20.20;99.50;;;;;;6174889;28;20053;-82
2022/09/25 09:58:28;;;;;;;8.55;5.28;;;20.90;97.60;;;;;;6168837;28;20051;-83
2022/09/25 10:01:34;;;;;;;6.15;3.92;;;21.50;95.60;;;;;;6166005;28;20083;-82
2022/09/25 10:04:39;;;;;;;5.40;3.85;;;22.10;94.90;;;;;;6172714;28;20505;-83
2022/09/25 10:07:42;;;;;;;8.80;3.55;;;22.60;93.20;;;;;;6161994;28;20058;-82
2022/09/25 10:10:47;;;;;;;7.05;4.55;;;23.00;92.00;;;;;;6179773;28;20045;-82
2022/09/25 10:13:50;;;;;;;7.75;4.00;;;23.50;90.10;;;;;;6178959;28;20050;-81
2022/09/25 10:16:53;;;;;;;8.52;5.18;;;23.70;88.30;;;;;;6162894;28;20420;-83
2022/09/25 10:19:58;;;;;;;8.23;4.22;;;23.80;86.50;;;;;;6168215;28;20043;-81
2022/09/25 10:23:02;;;;;;;7.78;4.75;;;23.90;86.00;;;;;;6111687;28;20062;-82
2022/09/25 10:26:22;;;;;;;9.55;4.78;;;23.90;84.70;;;;;;6174206;28;20050;-83
2022/09/25 10:29:28;;;;;;;12.32;5.25;;;23.60;84.40;;;;;;6177070;28;20515;-82
2022/09/25 10:32:32;;;;;;;7.68;5.22;;;23.30;84.30;;;;;;6184730;28;20043;-82
2022/09/25 10:35:44;;;;;;;7.68;4.63;;;23.00;85.30;;;;;;6183460;28;20054;-83
2022/09/25 10:38:48;;;;;;;9.05;5.72;;;22.60;85.70;;;;;;6182379;28;20473;-82
2022/09/25 10:41:51;;;;;;;10.30;6.40;;;22.20;85.10;;;;;;6183311;28;20051;-82
2022/09/25 10:44:56;;;;;;;8.73;6.00;;;21.70;89.20;;;;;;6183606;28;20099;-81
2022/09/25 10:51:20;;;;;;;17.23;8.40;;;20.20;94.60;;;;;;6179848;28;20098;-81
2022/09/25 10:54:21;;;;;;;12.60;7.70;;;19.30;97.70;;;;;;6180931;28;20551;-82
2022/09/25 10:57:33;;;;;;;16.35;8.25;;;18.80;99.70;;;;;;6173436;28;20053;-82
2022/09/25 11:00:41;;;;;;;12.27;7.75;;;18.40;99.90;;;;;;6161064;28;20508;-80
2022/09/25 11:03:51;;;;;;;13.52;8.60;;;18.10;99.90;;;;;;6158131;28;20517;-81
2022/09/25 11:06:57;;;;;;;15.32;8.55;;;17.90;99.90;;;;;;6157490;28;20051;-81
2022/09/25 11:09:58;;;;;;;12.00;8.18;;;17.70;99.90;;;;;;6158498;28;20055;-83
2022/09/25 11:13:05;;;;;;;11.95;8.00;;;17.50;99.90;;;;;;6169755;28;20050;-82
2022/09/25 11:16:09;;;;;;;29.48;18.80;;;17.30;99.90;;;;;;6183676;28;20106;-81
2022/09/25 11:19:13;;;;;;;16.17;8.52;;;17.20;99.90;;;;;;6182474;28;20046;-82
2022/09/25 11:22:24;;;;;;;16.25;9.05;;;17.00;99.90;;;;;;6179063;28;20416;-81
2022/09/25 11:25:34;;;;;;;14.77;8.60;;;16.90;99.90;;;;;;6179639;28;20438;-82
2022/09/25 11:28:43;;;;;;;14.02;8.13;;;16.70;99.90;;;;;;6173440;28;20051;-82
2022/09/25 11:31:52;;;;;;;16.13;7.57;;;16.70;99.90;;;;;;6181224;28;20053;-83
2022/09/25 11:35:04;;;;;;;17.25;7.85;;;16.60;99.90;;;;;;6181535;28;20062;-81
2022/09/25 11:38:17;;;;;;;18.40;8.50;;;16.60;99.90;;;;;;6131297;28;20535;-81
2022/09/25 11:41:27;;;;;;;12.00;7.03;;;16.60;99.90;;;;;;6206622;23;20050;-83
2022/09/25 11:44:35;;;;;;;13.60;8.10;;;16.60;99.90;;;;;;6156625;28;20062;-82
2022/09/25 11:47:43;;;;;;;16.05;8.02;;;16.70;99.90;;;;;;6154847;28;20397;-82
2022/09/25 11:50:51;;;;;;;;;;;16.80;99.90;;;;;;6156063;28;20051;-81
2022/09/25 11:54:05;;;;;;;13.67;6.87;;;17.00;99.90;;;;;;6156061;28;19930;-82
2022/09/25 11:57:13;;;;;;;14.50;7.10;;;17.10;99.90;;;;;;6156148;29;20137;-82
2022/09/25 12:00:20;;;;;;;12.23;7.47;;;17.10;99.90;;;;;;6155678;28;20562;-82
2022/09/25 12:03:36;;;;;;;10.90;6.57;;;17.20;99.90;;;;;;6155251;28;20055;-82
2022/09/25 12:06:54;;;;;;;15.02;6.80;;;17.20;99.90;;;;;;6154599;28;20051;-82
2022/09/25 12:10:11;;;;;;;92.53;22.20;;;17.20;99.90;;;;;;6154916;28;20428;-82
2022/09/25 12:13:22;;;;;;;496.90;117.80;;;17.20;99.90;;;;;;6155935;28;20058;-82
2022/09/25 12:16:31;;;;;;;103.38;30.48;;;17.40;99.90;;;;;;6136050;28;20494;-81
2022/09/25 12:19:42;;;;;;;71.63;29.15;;;17.40;99.90;;;;;;6131651;28;20055;-81
2022/09/25 12:22:52;;;;;;;19.60;8.82;;;17.30;99.90;;;;;;6136213;28;20084;-81
2022/09/25 12:26:08;;;;;;;13.85;8.02;;;17.60;99.90;;;;;;6144991;28;20058;-81
2022/09/25 12:29:24;;;;;;;9.20;5.20;;;17.70;99.90;;;;;;6146975;29;20051;-81
2022/09/25 12:32:36;;;;;;;15.57;7.32;;;17.80;99.90;;;;;;6153915;28;20055;-82
2022/09/25 12:35:46;;;;;;;15.95;8.98;;;17.90;99.90;;;;;;6153633;28;20051;-82
2022/09/25 12:38:54;;;;;;;21.13;11.38;;;17.90;99.90;;;;;;6154423;28;20058;-82
2022/09/25 12:42:05;;;;;;;22.40;12.43;;;18.00;99.90;;;;;;6154427;28;20107;-82
2022/09/25 12:45:15;;;;;;;16.40;11.27;;;18.20;99.90;;;;;;6154905;28;20055;-82
2022/09/25 12:48:24;;;;;;;16.73;9.85;;;18.40;99.90;;;;;;6156204;28;20521;-82
2022/09/25 12:51:33;;;;;;;19.77;10.45;;;18.60;99.90;;;;;;6154416;28;20043;-82
2022/09/25 12:54:50;;;;;;;17.02;9.18;;;18.70;99.90;;;;;;6153640;28;20051;-82
2022/09/25 12:57:59;;;;;;;19.88;10.43;;;18.90;99.90;;;;;;6153687;28;20050;-82
2022/09/25 13:01:06;;;;;;;38.65;20.75;;;19.10;99.90;;;;;;6156340;28;20048;-83
2022/09/25 13:04:34;;;;;;;74.43;35.38;;;19.00;99.90;;;;;;6154165;28;20047;-82
2022/09/25 13:07:45;;;;;;;46.50;22.50;;;19.00;99.90;;;;;;6153325;28;20051;-82
2022/09/25 13:10:52;;;;;;;34.83;17.88;;;19.00;99.90;;;;;;6156175;28;20046;-82
2022/09/25 13:13:55;;;;;;;33.28;20.05;;;19.00;99.90;;;;;;6159029;28;20059;-82
2022/09/25 13:16:57;;;;;;;16.95;11.00;;;19.00;99.90;;;;;;6144649;28;20056;-81
2022/09/25 13:20:32;;;;;;;16.90;9.63;;;18.90;99.90;;;;;;6135862;28;20047;-82
2022/09/25 13:23:39;;;;;;;17.73;10.38;;;18.90;99.90;;;;;;6136272;28;20075;-82
2022/09/25 13:26:47;;;;;;;15.18;8.48;;;18.90;99.90;;;;;;6154572;28;20497;-82
2022/09/25 13:29:55;;;;;;;;;;;19.00;99.90;;;;;;6158402;28;20050;-80
2022/09/25 13:33:02;;;;;;;14.70;8.82;;;19.10;99.90;;;;;;6156499;28;19926;-80
2022/09/25 13:36:12;;;;;;;10.18;6.43;;;19.10;99.90;;;;;;6158538;28;20051;-80
2022/09/25 13:42:42;;;;;;;14.95;8.07;;;19.30;99.90;;;;;;6158359;28;20051;-81
2022/09/25 13:45:44;;;;;;;20.90;10.70;;;19.30;99.90;;;;;;6157905;28;20051;-80
2022/09/25 13:48:46;;;;;;;13.88;8.75;;;19.30;99.90;;;;;;6157539;28;20055;-80
2022/09/25 13:51:47;;;;;;;8.68;5.97;;;19.40;99.90;;;;;;6156388;28;20123;-81
2022/09/25 13:54:51;;;;;;;12.45;7.10;;;19.30;99.90;;;;;;6157729;28;20062;-81
2022/09/25 13:58:02;;;;;;;6.35;4.05;;;19.50;99.90;;;;;;6154565;28;20062;-81
2022/09/25 14:01:11;;;;;;;7.93;4.60;;;19.60;99.90;;;;;;6155171;28;20058;-81
2022/09/25 14:04:23;;;;;;;3.90;2.90;;;19.70;99.90;;;;;;6154584;28;20047;-81
2022/09/25 14:07:27;;;;;;;5.63;3.13;;;20.00;99.90;;;;;;6155999;28;20454;-80
2022/09/25 14:10:30;;;;;;;6.43;3.45;;;20.10;99.90;;;;;;6157981;28;20138;-80
2022/09/25 14:13:34;;;;;;;5.07;3.00;;;20.10;99.90;;;;;;6159306;28;20059;-82
2022/09/25 14:16:43;;;;;;;3.72;2.60;;;20.10;99.90;;;;;;6151486;29;20052;-81
2022/09/25 14:19:47;;;;;;;13.32;7.72;;;19.90;99.90;;;;;;6134109;28;20498;-81
2022/09/25 14:22:54;;;;;;;7.68;3.10;;;19.90;99.90;;;;;;6137080;28;20068;-81
2022/09/25 14:25:59;;;;;;;6.55;4.22;;;19.80;99.90;;;;;;6148511;28;20203;-81
2022/09/25 14:29:01;;;;;;;5.68;3.63;;;19.70;99.90;;;;;;6157316;28;20417;-81
2022/09/25 14:32:14;;;;;;;6.05;3.90;;;19.60;99.90;;;;;;6145724;28;20062;-80
2022/09/25 14:35:30;;;;;;;6.18;3.40;;;19.50;99.90;;;;;;6156957;29;20047;-80
2022/09/25 14:38:54;;;;;;;7.47;3.90;;;19.40;99.90;;;;;;6159105;28;20078;-80
2022/09/25 14:42:19;;;;;;;9.25;3.67;;;19.20;99.90;;;;;;6139198;28;20043;-80
2022/09/25 14:45:35;;;;;;;6.50;4.22;;;19.20;99.90;;;;;;6159410;28;20074;-80
2022/09/25 14:48:42;;;;;;;7.18;4.38;;;19.10;99.90;;;;;;6157120;28;20043;-81
2022/09/25 14:51:46;;;;;;;6.68;4.15;;;19.10;99.90;;;;;;6159194;28;20048;-80
2022/09/25 14:54:50;;;;;;;7.38;3.60;;;19.10;99.90;;;;;;6156890;28;20063;-82
2022/09/25 14:57:55;;;;;;;8.20;3.75;;;19.20;99.90;;;;;;6155232;28;20047;-80
2022/09/25 15:01:00;;;;;;;13.20;5.57;;;19.20;99.90;;;;;;6157148;28;20055;-80
2022/09/25 15:04:04;;;;;;;9.48;4.70;;;19.20;99.90;;;;;;6155137;28;20429;-80
2022/09/25 15:07:15;;;;;;;6.05;4.00;;;19.30;99.90;;;;;;6157549;28;20055;-81
2022/09/25 15:10:28;;;;;;;5.72;4.18;;;19.20;99.90;;;;;;6157588;28;20062;-80
2022/09/25 15:13:33;;;;;;;5.20;3.83;;;19.20;99.90;;;;;;6157641;28;20074;-81
2022/09/25 15:19:59;;;;;;;4.60;3.22;;;19.30;99.90;;;;;;6135766;28;20052;-81
2022/09/25 15:23:04;;;;;;;11.20;2.80;;;19.20;99.90;;;;;;6134611;29;20048;-80
2022/09/25 15:26:06;;;;;;;10.52;5.78;;;19.40;99.90;;;;;;6141644;28;20055;-81
2022/09/25 15:29:17;;;;;;;64.25;28.20;;;19.50;99.90;;;;;;6157822;28;20162;-81
2022/09/25 15:32:24;;;;;;;66.28;23.23;;;19.60;99.90;;;;;;6158808;28;20054;-81
2022/09/25 15:35:27;;;;;;;15.38;5.97;;;19.50;99.90;;;;;;6160314;28;20055;-81
2022/09/25 15:38:31;;;;;;;19.88;7.60;;;19.50;99.90;;;;;;6161657;28;20051;-81
2022/09/25 15:41:32;;;;;;;13.80;5.95;;;19.30;99.90;;;;;;6157019;28;20047;-81
2022/09/25 15:44:35;;;;;;;20.77;8.98;;;19.10;99.90;;;;;;6155207;28;20135;-82
2022/09/25 15:47:55;;;;;;;18.85;7.65;;;18.90;99.90;;;;;;6155802;28;20167;-81
2022/09/25 15:51:00;;;;;;;9.82;4.43;;;18.60;99.90;;;;;;6156064;28;20051;-82
2022/09/25 15:54:04;;;;;;;7.25;4.97;;;18.30;99.90;;;;;;6155864;28;20062;-81
2022/09/25 15:57:12;;;;;;;5.25;3.97;;;17.90;99.90;;;;;;6155298;28;20481;-81
2022/09/25 16:07:25;;;;;;;9.20;5.82;;;16.90;99.90;;;;;;6156355;28;20047;-81
2022/09/25 16:10:33;;;;;;;15.05;10.32;;;16.60;99.90;;;;;;6155082;28;20054;-82
2022/09/25 16:13:39;;;;;;;8.35;4.78;;;16.40;99.90;;;;;;6155315;28;20043;-80
2022/09/25 16:16:48;;;;;;;9.35;5.03;;;16.10;99.90;;;;;;6154877;28;20075;-83
2022/09/25 16:20:01;;;;;;;9.63;4.32;;;15.90;99.90;;;;;;6150119;28;20181;-80
2022/09/25 16:23:05;;;;;;;8.90;3.90;;;15.80;99.90;;;;;;6154586;28;20481;-81